createdAt,value
2018-11-25T00:00:31.287Z,29.13
2018-11-25T00:02:59.670Z,30.07
2018-11-25T00:05:28.015Z,28.77
2018-11-25T00:07:56.317Z,28.97
2018-11-25T00:10:24.933Z,29.87
2018-11-25T00:12:53.384Z,29.97
2018-11-25T00:15:21.714Z,29.13
2018-11-25T00:17:50.080Z,28.83
2018-11-25T00:20:18.434Z,30.17
2018-11-25T00:22:47.634Z,31.27
2018-11-25T00:25:16.968Z,28.30
2018-11-25T00:27:45.439Z,30.03
2018-11-25T00:30:14.601Z,27.27
2018-11-25T00:32:43.068Z,27.10
2018-11-25T00:35:12.511Z,30.10
2018-11-25T00:37:48.065Z,28.37
2018-11-25T00:40:12.044Z,30.27
2018-11-25T00:42:40.592Z,28.47
2018-11-25T00:45:11.490Z,31.30
2018-11-25T00:47:41.117Z,30.00
2018-11-25T00:50:10.705Z,28.50
2018-11-25T00:52:39.031Z,28.30
2018-11-25T00:55:12.768Z,29.77
2018-11-25T00:57:41.536Z,28.10
2018-11-25T01:00:14.552Z,29.37
2018-11-25T01:02:42.935Z,28.40
2018-11-25T01:05:11.560Z,28.90
2018-11-25T01:07:39.989Z,27.23
2018-11-25T01:10:10.124Z,26.17
2018-11-25T01:12:38.471Z,27.80
2018-11-25T01:15:09.085Z,27.10
2018-11-25T01:17:37.351Z,25.93
2018-11-25T01:20:07.563Z,29.43
2018-11-25T01:22:35.847Z,23.63
2018-11-25T01:25:04.254Z,23.43
2018-11-25T01:27:32.538Z,23.33
2018-11-25T01:30:00.938Z,24.13
2018-11-25T01:32:30.497Z,23.77
2018-11-25T01:35:01.186Z,21.83
2018-11-25T01:37:25.866Z,21.83
2018-11-25T01:39:54.129Z,21.47
2018-11-25T01:42:22.391Z,23.80
2018-11-25T01:44:50.802Z,22.77
2018-11-25T01:47:19.262Z,24.03
2018-11-25T01:49:47.580Z,21.57
2018-11-25T01:52:15.857Z,23.17
2018-11-25T01:54:44.143Z,22.77
2018-11-25T01:57:12.451Z,22.97
2018-11-25T01:59:40.786Z,21.07
2018-11-25T02:02:09.619Z,21.03
2018-11-25T02:04:37.910Z,19.37
2018-11-25T02:07:06.890Z,20.87
2018-11-25T02:09:36.007Z,19.97
2018-11-25T02:12:04.283Z,20.83
2018-11-25T02:14:32.667Z,19.23
2018-11-25T02:17:01.003Z,20.40
2018-11-25T02:19:29.299Z,20.13
2018-11-25T02:21:57.621Z,18.97
2018-11-25T02:24:25.894Z,20.73
2018-11-25T02:26:54.163Z,20.33
2018-11-25T02:29:22.811Z,21.67
2018-11-25T02:31:51.121Z,20.87
2018-11-25T02:34:20.215Z,20.30
2018-11-25T02:36:48.510Z,20.00
2018-11-25T02:39:16.779Z,18.73
2018-11-25T02:41:45.055Z,21.13
2018-11-25T02:52:53.585Z,23.10
2018-11-25T02:55:24.994Z,21.57
2018-11-25T02:57:53.296Z,23.90
2018-11-25T03:00:21.514Z,23.30
2018-11-25T03:02:49.882Z,23.40
2018-11-25T03:05:18.239Z,22.73
2018-11-25T03:07:46.484Z,23.57
2018-11-25T03:10:15.176Z,22.90
2018-11-25T03:12:43.459Z,25.20
2018-11-25T03:15:16.167Z,24.27
2018-11-25T03:17:44.475Z,25.30
2018-11-25T03:20:13.506Z,23.90
2018-11-25T03:22:41.775Z,22.57
2018-11-25T03:25:12.347Z,24.77
2018-11-25T03:27:40.624Z,24.63
2018-11-25T03:30:11.407Z,23.43
2018-11-25T03:32:39.664Z,24.53
2018-11-25T03:35:09.950Z,26.60
2018-11-25T03:37:38.233Z,24.17
2018-11-25T03:40:08.407Z,25.13
2018-11-25T03:42:36.680Z,24.57
2018-11-25T03:45:07.107Z,23.37
2018-11-25T03:47:35.387Z,23.30
2018-11-25T03:50:03.739Z,24.77
2018-11-25T03:52:32.054Z,22.83
2018-11-25T03:55:00.330Z,24.20
2018-11-25T03:57:28.605Z,27.57
2018-11-25T03:59:56.891Z,25.03
2018-11-25T04:02:25.192Z,24.70
2018-11-25T04:04:53.850Z,22.73
2018-11-25T04:07:22.507Z,24.90
2018-11-25T04:09:50.782Z,24.70
2018-11-25T04:12:19.123Z,25.00
2018-11-25T04:14:47.419Z,26.20
2018-11-25T04:17:15.691Z,25.93
2018-11-25T04:19:43.965Z,25.50
2018-11-25T04:22:12.271Z,25.17
2018-11-25T04:24:40.724Z,24.77
2018-11-25T04:27:08.970Z,24.53
2018-11-25T04:29:37.247Z,23.40
2018-11-25T04:32:05.681Z,21.97
2018-11-25T04:34:33.990Z,26.30
2018-11-25T04:37:02.298Z,26.93
2018-11-25T04:39:30.596Z,26.60
2018-11-25T04:41:58.842Z,27.27
2018-11-25T04:44:27.522Z,25.93
2018-11-25T04:46:55.774Z,27.17
2018-11-25T04:49:24.073Z,26.37
2018-11-25T04:51:52.387Z,26.43
2018-11-25T04:54:20.683Z,26.27
2018-11-25T04:56:48.950Z,26.17
2018-11-25T04:59:17.257Z,24.67
2018-11-25T05:01:45.535Z,26.70
2018-11-25T05:04:13.813Z,28.03
2018-11-25T05:06:42.087Z,28.20
2018-11-25T05:09:10.385Z,27.17
2018-11-25T05:11:38.638Z,27.27
2018-11-25T05:14:06.955Z,27.70
2018-11-25T05:16:35.287Z,25.10
2018-11-25T05:19:03.539Z,26.77
2018-11-25T05:21:31.793Z,25.77
2018-11-25T05:24:00.076Z,28.00
2018-11-25T05:26:28.404Z,27.27
2018-11-25T05:28:56.691Z,26.97
2018-11-25T05:31:25.055Z,27.30
2018-11-25T05:33:53.581Z,29.30
2018-11-25T05:36:21.880Z,25.50
2018-11-25T05:38:50.121Z,24.90
2018-11-25T05:41:18.378Z,26.87
2018-11-25T05:43:46.657Z,26.43
2018-11-25T05:46:14.920Z,28.00
2018-11-25T05:48:43.860Z,27.20
2018-11-25T05:51:12.555Z,28.50
2018-11-25T05:53:40.855Z,29.57
2018-11-25T05:56:09.074Z,24.83
2018-11-25T05:58:38.972Z,26.07
2018-11-25T06:01:07.266Z,28.47
2018-11-25T06:03:35.552Z,29.47
2018-11-25T06:06:03.814Z,23.97
2018-11-25T06:08:32.078Z,24.40
2018-11-25T06:11:00.517Z,25.50
2018-11-25T06:13:28.897Z,27.70
2018-11-25T06:15:58.095Z,26.83
2018-11-25T06:18:27.221Z,27.97
2018-11-25T06:20:55.521Z,28.40
2018-11-25T06:23:23.884Z,28.87
2018-11-25T06:25:52.194Z,29.20
2018-11-25T06:28:20.651Z,28.07
2018-11-25T06:30:48.960Z,28.77
2018-11-25T06:33:17.229Z,28.00
2018-11-25T06:35:45.573Z,27.43
2018-11-25T06:38:14.097Z,31.30
2018-11-25T06:40:42.434Z,30.73
2018-11-25T06:43:10.698Z,30.10
2018-11-25T06:45:38.973Z,28.67
2018-11-25T06:48:07.525Z,31.23
2018-11-25T06:50:35.821Z,30.13
2018-11-25T06:53:05.017Z,29.70
2018-11-25T06:55:33.286Z,35.80
2018-11-25T06:58:01.664Z,30.63
2018-11-25T07:00:29.947Z,30.20
2018-11-25T07:02:58.226Z,30.13
2018-11-25T07:05:26.477Z,31.90
2018-11-25T07:07:54.750Z,30.13
2018-11-25T07:10:23.325Z,30.43
2018-11-25T07:12:52.530Z,29.40
2018-11-25T07:15:20.903Z,28.57
2018-11-25T07:17:49.299Z,30.53
2018-11-25T07:20:18.174Z,29.63
2018-11-25T07:22:46.719Z,28.67
2018-11-25T07:25:20.511Z,29.83
2018-11-25T07:27:48.811Z,32.70
2018-11-25T07:30:21.267Z,29.67
2018-11-25T07:32:49.524Z,35.70
2018-11-25T07:35:18.744Z,36.50
2018-11-25T07:37:47.083Z,35.53
2018-11-25T07:40:17.388Z,33.63
2018-11-25T07:42:45.726Z,30.30
2018-11-25T07:45:15.037Z,31.47
2018-11-25T07:47:43.328Z,32.77
2018-11-25T07:50:12.374Z,31.80
2018-11-25T07:52:41.309Z,34.33
2018-11-25T07:55:12.149Z,30.47
2018-11-25T07:57:40.579Z,33.40
2018-11-25T08:00:17.193Z,33.93
2018-11-25T08:02:45.474Z,33.70
2018-11-25T08:05:16.967Z,32.43
2018-11-25T08:07:45.371Z,30.70
2018-11-25T08:10:14.521Z,33.37
2018-11-25T08:12:42.907Z,33.87
2018-11-25T08:15:14.865Z,35.10
2018-11-25T08:17:43.115Z,31.07
2018-11-25T08:20:15.151Z,32.27
2018-11-25T08:22:43.463Z,32.03
2018-11-25T08:25:12.723Z,31.30
2018-11-25T08:27:41.004Z,32.87
2018-11-25T08:30:24.592Z,32.57
2018-11-25T08:32:53.114Z,30.90
2018-11-25T08:35:22.706Z,33.60
2018-11-25T08:37:50.990Z,32.83
2018-11-25T08:40:22.953Z,29.77
2018-11-25T08:42:51.323Z,30.43
2018-11-25T08:45:19.655Z,27.67
2018-11-25T08:47:47.929Z,29.47
2018-11-25T08:50:17.025Z,30.30
2018-11-25T08:52:46.927Z,30.07
2018-11-25T08:55:16.865Z,32.63
2018-11-25T08:57:45.200Z,31.43
2018-11-25T09:00:14.523Z,34.00
2018-11-25T09:02:42.850Z,30.27
2018-11-25T09:05:12.082Z,33.03
2018-11-25T09:07:40.342Z,32.23
2018-11-25T09:10:13.618Z,34.70
2018-11-25T09:12:42.083Z,32.47
2018-11-25T09:15:15.278Z,32.90
2018-11-25T09:17:43.636Z,32.60
2018-11-25T09:20:13.115Z,31.50
2018-11-25T09:22:41.542Z,33.40
2018-11-25T09:25:14.035Z,33.83
2018-11-25T09:27:43.031Z,32.07
2018-11-25T09:30:15.291Z,35.33
2018-11-25T09:32:43.590Z,34.17
2018-11-25T09:35:12.003Z,35.83
2018-11-25T09:37:40.272Z,35.13
2018-11-25T09:40:12.622Z,32.50
2018-11-25T09:42:40.955Z,36.83
2018-11-25T09:45:10.734Z,36.80
2018-11-25T09:47:38.951Z,35.37
2018-11-25T09:50:09.190Z,36.20
2018-11-25T09:52:37.670Z,38.23
2018-11-25T09:55:08.292Z,37.07
2018-11-25T09:57:36.582Z,37.47
2018-11-25T10:00:10.616Z,37.13
2018-11-25T10:02:38.912Z,36.37
2018-11-25T10:05:07.342Z,36.30
2018-11-25T10:07:35.687Z,38.57
2018-11-25T10:10:04.209Z,36.70
2018-11-25T10:12:32.434Z,39.17
2018-11-25T10:15:00.741Z,40.47
2018-11-25T10:17:29.025Z,41.97
2018-11-25T10:19:57.327Z,41.40
2018-11-25T10:22:25.630Z,41.17
2018-11-25T10:24:53.895Z,42.03
2018-11-25T10:27:22.252Z,44.97
2018-11-25T10:29:50.707Z,36.90
2018-11-25T10:32:19.030Z,34.37
2018-11-25T10:34:47.313Z,35.07
2018-11-25T10:37:15.724Z,32.53
2018-11-25T10:39:44.021Z,33.07
2018-11-25T10:42:12.267Z,35.17
2018-11-25T10:44:40.621Z,32.23
2018-11-25T10:47:08.887Z,33.90
2018-11-25T10:49:37.226Z,31.73
2018-11-25T10:52:05.558Z,32.90
2018-11-25T10:54:33.831Z,33.63
2018-11-25T10:57:02.222Z,32.70
2018-11-25T10:59:30.561Z,33.60
2018-11-25T11:04:10.167Z,35.80
2018-11-25T11:06:43.823Z,33.93
2018-11-25T11:09:12.244Z,37.03
2018-11-25T11:11:41.064Z,34.60
2018-11-25T11:14:10.692Z,31.27
2018-11-25T11:16:38.996Z,34.57
2018-11-25T11:19:07.475Z,34.03
2018-11-25T11:21:35.777Z,36.83
2018-11-25T11:24:04.278Z,34.00
2018-11-25T11:26:32.643Z,35.07
2018-11-25T11:29:01.092Z,36.20
2018-11-25T11:31:29.397Z,32.27
2018-11-25T11:33:57.675Z,37.77
2018-11-25T11:36:26.006Z,36.97
2018-11-25T11:38:54.670Z,32.87
2018-11-25T11:41:22.937Z,33.37
2018-11-25T11:43:51.256Z,33.97
2018-11-25T11:46:19.601Z,36.03
2018-11-25T11:48:47.891Z,33.77
2018-11-25T11:51:16.219Z,33.73
2018-11-25T11:53:44.933Z,33.70
2018-11-25T11:56:13.464Z,33.57
2018-11-25T11:58:41.745Z,33.63
2018-11-25T12:01:10.055Z,34.00
2018-11-25T12:03:38.298Z,34.40
2018-11-25T12:06:07.602Z,32.67
2018-11-25T12:08:35.946Z,32.23
2018-11-25T12:11:04.356Z,35.10
2018-11-25T12:13:32.666Z,32.57
2018-11-25T12:16:01.051Z,31.63
2018-11-25T12:18:29.347Z,31.57
2018-11-25T12:20:57.701Z,30.93
2018-11-25T12:23:26.082Z,31.00
2018-11-25T12:25:54.491Z,30.13
2018-11-25T12:28:22.903Z,31.03
2018-11-25T12:30:51.239Z,33.73
2018-11-25T12:33:19.565Z,31.87
2018-11-25T12:35:47.924Z,33.30
2018-11-25T12:38:16.212Z,32.67
2018-11-25T12:40:44.518Z,33.77
2018-11-25T12:43:12.854Z,35.67
2018-11-25T12:45:41.204Z,36.47
2018-11-25T12:48:09.490Z,34.07
2018-11-25T12:50:37.864Z,32.00
2018-11-25T12:53:06.349Z,34.33
2018-11-25T12:55:34.724Z,30.87
2018-11-25T12:58:03.220Z,31.97
2018-11-25T13:00:36.797Z,33.47
2018-11-25T13:03:06.065Z,34.73
2018-11-25T13:05:35.035Z,35.00
2018-11-25T13:08:04.372Z,35.77
2018-11-25T13:10:32.742Z,33.43
2018-11-25T13:13:01.066Z,34.07
2018-11-25T13:15:29.403Z,35.87
2018-11-25T13:17:57.777Z,33.83
2018-11-25T13:20:26.177Z,36.83
2018-11-25T13:22:54.568Z,32.03
2018-11-25T13:25:23.011Z,33.63
2018-11-25T13:27:51.430Z,32.80
2018-11-25T13:30:21.731Z,32.03
2018-11-25T13:32:50.976Z,32.43
2018-11-25T13:35:19.334Z,34.33
2018-11-25T13:37:47.570Z,33.27
2018-11-25T13:40:16.522Z,29.93
2018-11-25T13:42:44.904Z,31.63
2018-11-25T13:45:13.246Z,34.03
2018-11-25T13:47:41.534Z,31.20
2018-11-25T13:50:10.867Z,32.40
2018-11-25T13:52:39.206Z,30.83
2018-11-25T13:55:13.638Z,29.80
2018-11-25T13:57:41.953Z,30.17
2018-11-25T14:00:16.031Z,30.23
2018-11-25T14:02:44.306Z,31.63
2018-11-25T14:05:12.607Z,32.67
2018-11-25T14:07:40.855Z,31.40
2018-11-25T14:10:14.000Z,32.03
2018-11-25T14:12:42.306Z,32.07
2018-11-25T14:15:11.055Z,34.27
2018-11-25T14:17:39.403Z,29.47
2018-11-25T14:20:09.139Z,31.43
2018-11-25T14:22:37.478Z,31.73
2018-11-25T14:25:08.575Z,29.63
2018-11-25T14:27:36.855Z,31.13
2018-11-25T14:30:13.498Z,32.10
2018-11-25T14:32:38.814Z,29.73
2018-11-25T14:35:09.183Z,30.10
2018-11-25T14:37:37.464Z,30.40
2018-11-25T14:40:08.226Z,29.60
2018-11-25T14:42:36.727Z,30.77
2018-11-25T14:45:06.230Z,29.07
2018-11-25T14:47:34.531Z,29.47
2018-11-25T14:50:02.892Z,29.97
2018-11-25T14:52:31.173Z,29.73
2018-11-25T14:54:59.675Z,31.03
2018-11-25T14:57:27.924Z,24.43
2018-11-25T14:59:56.317Z,28.47
2018-11-25T15:02:24.572Z,28.43
2018-11-25T15:04:53.058Z,30.50
2018-11-25T15:07:21.379Z,28.03
2018-11-25T15:09:49.705Z,27.17
2018-11-25T15:12:18.126Z,29.60
2018-11-25T15:14:46.463Z,29.17
2018-11-25T15:17:14.789Z,27.43
2018-11-25T15:19:43.180Z,27.63
2018-11-25T15:22:11.441Z,26.20
2018-11-25T15:24:39.723Z,25.93
2018-11-25T15:27:08.210Z,25.87
2018-11-25T15:29:36.543Z,26.10
2018-11-25T15:32:04.921Z,26.10
2018-11-25T15:34:33.290Z,26.77
2018-11-25T15:37:01.880Z,30.53
2018-11-25T15:39:31.217Z,38.53
2018-11-25T15:41:59.724Z,34.43
2018-11-25T15:44:28.079Z,30.93
2018-11-25T15:46:56.435Z,28.50
2018-11-25T15:49:24.868Z,31.20
2018-11-25T15:51:53.231Z,30.40
2018-11-25T15:54:21.546Z,35.20
2018-11-25T15:56:49.896Z,31.33
2018-11-25T15:59:18.212Z,29.50
2018-11-25T16:01:47.593Z,32.07
2018-11-25T16:04:17.022Z,32.53
2018-11-25T16:06:45.644Z,33.77
2018-11-25T16:09:14.013Z,32.27
2018-11-25T16:11:42.407Z,31.97
2018-11-25T16:14:10.833Z,31.13
2018-11-25T16:16:39.149Z,30.63
2018-11-25T16:19:07.553Z,31.83
2018-11-25T16:21:35.940Z,29.23
2018-11-25T16:24:04.320Z,29.77
2018-11-25T16:26:34.559Z,31.37
2018-11-25T16:29:08.677Z,29.17
2018-11-25T16:31:37.144Z,30.37
2018-11-25T16:34:05.547Z,31.10
2018-11-25T16:36:34.870Z,31.93
2018-11-25T16:39:03.535Z,33.20
2018-11-25T16:41:31.904Z,30.70
2018-11-25T16:44:00.411Z,40.73
2018-11-25T16:46:29.800Z,35.03
2018-11-25T16:48:58.134Z,31.67
2018-11-25T16:51:26.557Z,33.13
2018-11-25T16:53:55.141Z,31.43
2018-11-25T16:56:23.491Z,32.53
2018-11-25T16:58:51.892Z,31.97
2018-11-25T17:01:20.266Z,30.57
2018-11-25T17:03:49.675Z,29.60
2018-11-25T17:06:18.009Z,30.27
2018-11-25T17:08:46.482Z,30.77
2018-11-25T17:11:14.765Z,30.20
2018-11-25T17:13:43.200Z,32.20
2018-11-25T17:16:11.574Z,31.40
2018-11-25T17:18:40.112Z,31.20
2018-11-25T17:21:09.522Z,33.40
2018-11-25T17:23:37.987Z,31.40
2018-11-25T17:26:06.326Z,29.83
2018-11-25T17:28:35.825Z,34.77
2018-11-25T17:31:04.199Z,33.53
2018-11-25T17:33:32.533Z,33.90
2018-11-25T17:36:00.922Z,34.27
2018-11-25T17:38:29.298Z,34.87
2018-11-25T17:40:58.641Z,37.27
2018-11-25T17:43:27.084Z,35.50
2018-11-25T17:45:56.565Z,34.57
2018-11-25T17:48:25.042Z,36.03
2018-11-25T17:50:54.437Z,35.67
2018-11-25T17:53:22.738Z,36.93
2018-11-25T17:55:51.646Z,37.93
2018-11-25T17:58:19.895Z,38.37
2018-11-25T18:00:53.878Z,38.73
2018-11-25T18:03:26.399Z,35.03
2018-11-25T18:05:54.744Z,39.07
2018-11-25T18:08:23.159Z,40.47
2018-11-25T18:10:51.601Z,39.40
2018-11-25T18:13:21.386Z,38.50
2018-11-25T18:15:51.568Z,40.23
2018-11-25T18:18:26.566Z,43.33
2018-11-25T18:21:00.757Z,43.57
2018-11-25T18:23:30.744Z,39.77
2018-11-25T18:25:59.119Z,43.63
2018-11-25T18:28:27.427Z,41.37
2018-11-25T18:30:55.696Z,43.43
2018-11-25T18:33:25.069Z,43.63
2018-11-25T18:35:53.332Z,44.77
2018-11-25T18:38:21.724Z,45.00
2018-11-25T18:40:50.410Z,45.73
2018-11-25T18:43:18.701Z,42.23
2018-11-25T18:45:47.035Z,42.90
2018-11-25T18:48:16.267Z,41.70
2018-11-25T18:50:44.635Z,42.70
2018-11-25T18:53:13.283Z,43.70
2018-11-25T18:55:40.500Z,42.67
2018-11-25T18:58:09.002Z,42.97
2018-11-25T19:00:41.998Z,43.67
2018-11-25T19:03:10.324Z,56.35
2018-11-25T19:05:38.638Z,44.33
2018-11-25T19:08:08.177Z,41.87
2018-11-25T19:10:36.558Z,42.57
2018-11-25T19:13:05.005Z,41.03
2018-11-25T19:15:33.423Z,43.97
2018-11-25T19:18:01.855Z,40.60
2018-11-25T19:20:30.283Z,41.60
2018-11-25T19:22:59.232Z,43.20
2018-11-25T19:25:27.621Z,40.17
2018-11-25T19:27:56.711Z,43.80
2018-11-25T19:30:26.766Z,44.63
2018-11-25T19:32:53.527Z,40.87
2018-11-25T19:35:22.569Z,42.80
2018-11-25T19:37:52.599Z,44.60
2018-11-25T19:40:22.262Z,43.13
2018-11-25T19:42:50.572Z,44.90
2018-11-25T19:45:20.078Z,44.77
2018-11-25T19:47:48.450Z,45.57
2018-11-25T19:50:21.160Z,45.43
2018-11-25T19:52:49.507Z,44.20
2018-11-25T19:55:17.955Z,46.17
2018-11-25T19:57:46.236Z,44.70
2018-11-25T20:00:18.856Z,47.63
2018-11-25T20:02:47.169Z,44.50
2018-11-25T20:05:15.610Z,47.70
2018-11-25T20:07:44.181Z,44.97
2018-11-25T20:10:15.522Z,47.03
2018-11-25T20:12:46.408Z,45.43
2018-11-25T20:15:15.740Z,52.38
2018-11-25T20:17:44.197Z,63.02
2018-11-25T20:20:17.752Z,49.90
2018-11-25T20:22:47.339Z,46.40
2018-11-25T20:25:15.991Z,46.23
2018-11-25T20:27:47.371Z,45.20
2018-11-25T20:30:17.525Z,47.47
2018-11-25T20:32:51.185Z,42.50
2018-11-25T20:35:19.598Z,44.23
2018-11-25T20:37:53.098Z,46.87
2018-11-25T20:40:21.383Z,44.90
2018-11-25T20:42:49.735Z,45.03
2018-11-25T20:45:24.387Z,46.30
2018-11-25T20:47:54.165Z,47.03
2018-11-25T20:50:22.514Z,42.63
2018-11-25T20:52:56.444Z,43.77
2018-11-25T20:55:27.810Z,47.67
2018-11-25T20:57:57.098Z,45.33
2018-11-25T21:00:26.589Z,43.27
2018-11-25T21:02:54.992Z,42.53
2018-11-25T21:05:25.169Z,46.80
2018-11-25T21:07:53.486Z,41.00
2018-11-25T21:10:21.863Z,41.80
2018-11-25T21:12:52.268Z,43.33
2018-11-25T21:15:21.864Z,44.60
2018-11-25T21:17:50.289Z,41.50
2018-11-25T21:20:22.084Z,44.10
2018-11-25T21:22:50.374Z,41.07
2018-11-25T21:25:20.737Z,42.73
2018-11-25T21:27:49.138Z,42.60
2018-11-25T21:30:19.431Z,43.30
2018-11-25T21:32:48.859Z,42.57
2018-11-25T21:35:17.089Z,43.80
2018-11-25T21:37:45.366Z,41.77
2018-11-25T21:40:19.946Z,41.07
2018-11-25T21:42:49.096Z,42.43
2018-11-25T21:45:18.850Z,42.77
2018-11-25T21:47:47.934Z,42.90
2018-11-25T21:50:20.255Z,41.37
2018-11-25T21:52:48.544Z,43.33
2018-11-25T21:55:17.523Z,42.03
2018-11-25T21:57:45.994Z,42.40
2018-11-25T22:00:17.366Z,43.13
2018-11-25T22:02:45.658Z,41.53
2018-11-25T22:05:14.329Z,42.43
2018-11-25T22:07:42.731Z,41.03
2018-11-25T22:10:12.994Z,41.27
2018-11-25T22:12:41.683Z,42.10
2018-11-25T22:15:12.084Z,42.20
2018-11-25T22:17:40.557Z,42.50
2018-11-25T22:20:09.883Z,42.57
2018-11-25T22:22:38.196Z,40.20
2018-11-25T22:25:09.641Z,38.97
2018-11-25T22:27:37.946Z,41.40
2018-11-25T22:30:09.194Z,40.40
2018-11-25T22:32:37.683Z,39.77
2018-11-25T22:35:08.172Z,40.07
2018-11-25T22:37:36.532Z,41.73
2018-11-25T22:40:06.264Z,39.57
2018-11-25T22:42:34.545Z,39.17
2018-11-25T22:45:03.058Z,38.73
2018-11-25T22:47:31.495Z,39.77
2018-11-25T22:49:59.826Z,37.20
2018-11-25T22:52:28.263Z,39.60
2018-11-25T22:54:56.538Z,38.37
2018-11-25T22:57:24.810Z,37.77
2018-11-25T22:59:53.054Z,39.50
2018-11-25T23:02:28.862Z,39.80
2018-11-25T23:05:08.442Z,38.87
2018-11-25T23:07:36.710Z,38.27
2018-11-25T23:10:05.108Z,40.63
2018-11-25T23:12:33.378Z,39.70
2018-11-25T23:15:01.858Z,38.60
2018-11-25T23:17:30.111Z,38.97
2018-11-25T23:19:58.410Z,39.73
2018-11-25T23:22:26.700Z,39.87
2018-11-25T23:24:55.091Z,37.87
2018-11-25T23:27:23.343Z,39.63
2018-11-25T23:29:52.476Z,38.13
2018-11-25T23:32:20.781Z,36.30
2018-11-25T23:34:49.050Z,37.57
2018-11-25T23:37:17.331Z,39.83
2018-11-25T23:39:45.776Z,39.97
2018-11-25T23:42:14.052Z,36.77
2018-11-25T23:44:42.487Z,37.53
2018-11-25T23:47:10.861Z,37.37
2018-11-25T23:49:39.084Z,37.10
2018-11-25T23:52:07.382Z,34.70
2018-11-25T23:54:35.654Z,37.30
2018-11-25T23:57:04.284Z,35.10
2018-11-25T23:59:33.050Z,36.43
